Time;durP1;ratioP1;P1;durP2;ratioP2;P2;SDS_P1;SDS_P2;PMS_P1;PMS_P2;Temp;Humidity;BMP_temperature;BMP_pressure;BME280_temperature;BME280_humidity;BME280_pressure;Samples;Min_cycle;Max_cycle;Signal;HPM_P1;HPM_P2
2023/03/10 00:00:49;;;;;;;3.20;1.10;;;10.90;1.00;;;;;;7362291;19;20003;-68
2023/03/10 00:03:19;;;;;;;2.92;1.20;;;10.80;1.00;;;;;;7364164;19;20363;-67
2023/03/10 00:05:49;;;;;;;4.70;1.77;;;10.80;1.00;;;;;;7365135;19;20240;-67
2023/03/10 00:08:22;;;;;;;1.25;0.98;;;10.70;1.00;;;;;;7363240;19;20041;-68
2023/03/10 00:10:54;;;;;;;3.53;1.50;;;10.70;1.00;;;;;;7361216;19;20014;-68
2023/03/10 00:13:23;;;;;;;3.78;1.38;;;10.60;1.00;;;;;;7364359;19;20046;-68
2023/03/10 00:15:53;;;;;;;5.63;1.90;;;10.60;1.00;;;;;;7384781;19;20026;-68
2023/03/10 00:18:23;;;;;;;6.15;1.50;;;10.50;1.00;;;;;;7363563;19;20010;-67
2023/03/10 00:20:53;;;;;;;5.80;1.80;;;10.50;1.00;;;;;;7363495;19;20053;-67
2023/03/10 00:23:26;;;;;;;3.85;1.55;;;10.50;1.00;;;;;;7362024;19;20473;-68
2023/03/10 00:25:57;;;;;;;4.13;1.40;;;10.40;1.00;;;;;;7362373;19;20060;-68
2023/03/10 00:28:28;;;;;;;3.17;1.17;;;10.40;1.00;;;;;;7363901;19;20018;-67
2023/03/10 00:31:00;;;;;;;8.27;1.80;;;10.40;1.00;;;;;;7383743;19;20021;-68
2023/03/10 00:33:32;;;;;;;3.78;1.40;;;10.40;1.00;;;;;;7359815;19;20014;-68
2023/03/10 00:36:06;;;;;;;5.70;1.70;;;10.40;1.00;;;;;;7362296;19;20015;-68
2023/03/10 00:38:40;;;;;;;2.58;1.45;;;10.40;1.00;;;;;;7362184;19;20011;-68
2023/03/10 00:41:14;;;;;;;5.35;1.80;;;10.40;1.00;;;;;;7360915;19;20015;-66
2023/03/10 00:43:44;;;;;;;3.95;1.33;;;10.40;1.00;;;;;;7361493;19;20030;-67
2023/03/10 00:46:14;;;;;;;2.10;1.40;;;10.40;1.00;;;;;;7383205;19;20022;-67
2023/03/10 00:48:44;;;;;;;4.93;1.42;;;10.50;1.00;;;;;;7363109;19;20575;-66
2023/03/10 00:51:14;;;;;;;2.60;1.27;;;10.40;1.00;;;;;;7364060;19;20018;-66
2023/03/10 00:53:47;;;;;;;6.05;1.52;;;10.50;1.00;;;;;;7361027;19;20014;-66
2023/03/10 00:56:18;;;;;;;4.28;1.33;;;10.50;1.00;;;;;;7363402;19;20022;-66
2023/03/10 00:58:51;;;;;;;9.45;1.80;;;10.50;1.00;;;;;;7362279;19;20014;-67
2023/03/10 01:01:23;;;;;;;4.00;1.38;;;10.50;1.00;;;;;;7385326;19;20015;-67
2023/03/10 01:03:54;;;;;;;2.85;1.52;;;10.50;1.00;;;;;;7360873;19;20014;-65
2023/03/10 01:06:24;;;;;;;5.32;1.58;;;10.50;1.00;;;;;;7361680;19;20533;-64
2023/03/10 01:08:56;;;;;;;3.40;1.10;;;10.40;1.00;;;;;;7364524;19;20131;-66
2023/03/10 01:11:28;;;;;;;4.70;1.55;;;10.40;1.00;;;;;;7374095;19;20017;-67
2023/03/10 01:14:00;;;;;;;7.53;1.38;;;10.50;1.00;;;;;;7368968;19;20035;-66
2023/03/10 01:16:30;;;;;;;3.58;1.17;;;10.40;1.00;;;;;;7391884;19;20554;-66
2023/03/10 01:19:01;;;;;;;2.55;1.10;;;10.40;1.00;;;;;;7357491;19;20518;-66
2023/03/10 01:21:33;;;;;;;2.63;1.50;;;10.40;1.00;;;;;;7362932;19;20023;-67
2023/03/10 01:24:08;;;;;;;5.03;1.70;;;10.40;1.00;;;;;;7360778;19;20019;-66
2023/03/10 01:26:37;;;;;;;4.07;1.40;;;10.40;1.00;;;;;;7360684;19;20653;-67
2023/03/10 01:29:07;;;;;;;3.33;1.23;;;10.30;1.00;;;;;;7360212;19;20015;-67
2023/03/10 01:31:37;;;;;;;4.30;1.27;;;10.30;1.00;;;;;;7385358;19;20017;-66
2023/03/10 01:34:07;;;;;;;2.60;1.13;;;10.30;1.00;;;;;;7359035;19;20011;-67
2023/03/10 01:36:37;;;;;;;4.22;1.38;;;10.30;1.00;;;;;;7360419;19;20482;-68
2023/03/10 01:39:09;;;;;;;4.45;1.45;;;10.30;1.00;;;;;;7360605;19;20489;-67
2023/03/10 01:41:40;;;;;;;3.75;1.42;;;10.30;1.00;;;;;;7360985;19;20021;-66
2023/03/10 01:44:16;;;;;;;5.10;1.73;;;10.30;1.00;;;;;;7360685;19;20651;-67
2023/03/10 01:46:49;;;;;;;4.38;1.17;;;10.30;1.00;;;;;;7358737;19;20732;-68
2023/03/10 01:49:27;;;;;;;3.25;1.30;;;10.30;1.00;;;;;;7379521;19;20031;-67
2023/03/10 01:52:04;;;;;;;3.67;0.95;;;10.40;1.00;;;;;;7363981;19;20474;-67
2023/03/10 01:54:45;;;;;;;6.05;1.50;;;10.40;1.00;;;;;;7359984;19;20010;-68
2023/03/10 01:57:18;;;;;;;3.45;1.30;;;10.40;1.00;;;;;;7361549;19;20597;-68
2023/03/10 01:59:49;;;;;;;2.78;1.02;;;10.50;1.00;;;;;;7358152;19;20017;-67
2023/03/10 02:02:19;;;;;;;4.97;1.33;;;10.50;1.00;;;;;;7359232;19;20500;-68
2023/03/10 02:04:51;;;;;;;4.70;1.10;;;10.60;1.00;;;;;;7383335;19;20015;-67
2023/03/10 02:07:24;;;;;;;5.22;1.27;;;10.50;1.00;;;;;;7358536;19;20011;-68
2023/03/10 02:09:58;;;;;;;2.22;0.88;;;10.50;1.00;;;;;;7355668;19;20029;-68
2023/03/10 02:12:28;;;;;;;3.03;1.17;;;10.60;1.00;;;;;;7365924;19;20026;-66
2023/03/10 02:14:58;;;;;;;1.88;0.85;;;10.60;1.00;;;;;;7366030;19;20011;-67
2023/03/10 02:17:29;;;;;;;2.42;1.10;;;10.60;1.00;;;;;;7365478;19;20370;-67
2023/03/10 02:20:11;;;;;;;2.83;0.80;;;10.60;1.00;;;;;;7363776;19;20376;-68
2023/03/10 02:22:42;;;;;;;1.98;1.00;;;10.50;1.00;;;;;;7388881;19;20019;-67
2023/03/10 02:25:24;;;;;;;3.28;0.98;;;10.50;1.00;;;;;;7365494;19;20006;-66
2023/03/10 02:27:57;;;;;;;3.30;1.10;;;10.50;1.00;;;;;;7366049;19;20034;-67
2023/03/10 02:30:30;;;;;;;3.30;1.27;;;10.50;1.00;;;;;;7366001;19;20021;-67
2023/03/10 02:33:04;;;;;;;1.95;0.75;;;10.50;1.00;;;;;;7365054;19;20015;-67
2023/03/10 02:35:33;;;;;;;1.25;0.63;;;10.50;1.00;;;;;;7373450;19;20022;-68
2023/03/10 02:38:03;;;;;;;1.92;0.70;;;10.50;1.00;;;;;;7389339;19;20025;-66
2023/03/10 02:40:36;;;;;;;2.55;0.90;;;10.50;1.00;;;;;;7367253;19;20122;-67
2023/03/10 02:43:16;;;;;;;2.08;1.00;;;10.50;1.00;;;;;;7369217;19;20052;-68
2023/03/10 02:45:48;;;;;;;1.48;0.73;;;10.40;1.00;;;;;;7370386;19;20016;-68
2023/03/10 02:48:24;;;;;;;2.00;0.77;;;10.40;1.00;;;;;;7386372;19;20117;-67
2023/03/10 02:50:58;;;;;;;2.13;0.88;;;10.40;1.00;;;;;;7362937;19;20490;-67
2023/03/10 02:53:29;;;;;;;2.65;0.90;;;10.30;1.00;;;;;;7367933;19;20022;-67
2023/03/10 02:56:00;;;;;;;4.40;0.85;;;10.40;1.00;;;;;;7365284;19;20007;-67
2023/03/10 02:58:33;;;;;;;3.13;0.70;;;10.30;1.00;;;;;;7366534;19;20031;-66
2023/03/10 03:01:03;;;;;;;2.05;0.60;;;10.30;1.00;;;;;;7365018;19;20624;-68
2023/03/10 03:03:34;;;;;;;1.13;0.55;;;10.30;1.00;;;;;;7365697;19;20018;-68
2023/03/10 03:06:04;;;;;;;1.67;0.52;;;10.30;1.00;;;;;;7391490;19;20023;-66
2023/03/10 03:08:34;;;;;;;1.40;0.55;;;10.30;1.00;;;;;;7364547;19;20010;-67
2023/03/10 03:11:05;;;;;;;1.48;0.60;;;10.30;1.00;;;;;;7366772;19;20011;-67
2023/03/10 03:13:38;;;;;;;1.33;0.50;;;10.30;1.00;;;;;;7366730;19;20101;-67
2023/03/10 03:16:08;;;;;;;1.10;0.43;;;10.20;1.00;;;;;;7364300;19;20057;-66
2023/03/10 03:18:39;;;;;;;1.38;0.50;;;10.20;1.00;;;;;;7365456;19;20485;-67
2023/03/10 03:21:11;;;;;;;2.03;0.65;;;10.20;1.00;;;;;;7388083;19;20019;-67
2023/03/10 03:23:41;;;;;;;0.80;0.40;;;10.30;1.00;;;;;;7365602;19;20045;-66
2023/03/10 03:26:17;;;;;;;2.72;0.70;;;10.20;1.00;;;;;;7364387;19;20502;-66
2023/03/10 03:28:51;;;;;;;1.52;0.60;;;10.20;1.00;;;;;;7363409;19;20006;-67
2023/03/10 03:31:22;;;;;;;1.20;0.50;;;10.20;1.00;;;;;;7363530;19;20019;-66
2023/03/10 03:33:52;;;;;;;1.08;0.70;;;10.20;1.00;;;;;;7364509;19;20484;-67
2023/03/10 03:36:22;;;;;;;2.03;0.70;;;10.10;1.00;;;;;;7385717;19;20359;-67
2023/03/10 03:38:52;;;;;;;1.98;0.80;;;10.10;1.00;;;;;;7363949;19;20025;-67
2023/03/10 03:41:22;;;;;;;1.83;0.50;;;10.10;1.00;;;;;;7365040;19;20010;-67
2023/03/10 03:43:54;;;;;;;1.15;0.60;;;10.10;1.00;;;;;;7363835;19;20015;-67
2023/03/10 03:46:24;;;;;;;0.98;0.50;;;10.00;1.00;;;;;;7363382;19;20085;-67
2023/03/10 03:48:53;;;;;;;1.30;0.57;;;10.00;1.00;;;;;;7363892;19;20026;-67
2023/03/10 03:51:23;;;;;;;1.20;0.50;;;9.90;1.00;;;;;;7384634;19;20007;-67
2023/03/10 03:53:53;;;;;;;1.13;0.57;;;10.00;1.00;;;;;;7366405;19;20082;-67
2023/03/10 03:56:23;;;;;;;2.75;0.85;;;10.00;1.00;;;;;;7362665;19;20129;-67
2023/03/10 03:58:55;;;;;;;1.23;0.70;;;10.00;1.00;;;;;;7362383;19;20015;-67
2023/03/10 04:01:25;;;;;;;2.00;0.65;;;9.90;1.20;;;;;;7362908;19;20025;-67
2023/03/10 04:03:55;;;;;;;2.38;0.70;;;9.90;1.80;;;;;;7363465;19;20017;-66
2023/03/10 04:06:25;;;;;;;1.25;0.68;;;9.80;2.00;;;;;;7384417;19;20027;-67
2023/03/10 04:08:55;;;;;;;2.28;0.70;;;9.80;2.40;;;;;;7363258;19;20537;-66
2023/03/10 04:11:24;;;;;;;1.25;0.60;;;9.80;3.10;;;;;;7363543;19;20014;-67
2023/03/10 04:13:57;;;;;;;1.55;0.70;;;9.80;3.60;;;;;;7363103;19;20029;-67
2023/03/10 04:16:26;;;;;;;2.33;0.50;;;9.80;3.60;;;;;;7360255;19;20624;-67
2023/03/10 04:18:56;;;;;;;1.65;0.60;;;9.80;3.60;;;;;;7362974;19;20021;-66
2023/03/10 04:21:26;;;;;;;6.07;0.70;;;9.80;3.70;;;;;;7385796;19;20090;-67
2023/03/10 04:23:56;;;;;;;3.22;0.80;;;9.80;3.70;;;;;;7361898;19;20048;-67
2023/03/10 04:26:26;;;;;;;1.23;0.60;;;9.80;3.50;;;;;;7362295;19;20011;-67
2023/03/10 04:28:59;;;;;;;1.02;0.57;;;9.70;4.10;;;;;;7362071;19;20021;-67
2023/03/10 04:31:29;;;;;;;2.00;0.52;;;9.60;4.50;;;;;;7362278;19;20006;-67
2023/03/10 04:33:59;;;;;;;2.28;0.65;;;9.60;4.60;;;;;;7361199;19;20027;-67
2023/03/10 04:36:29;;;;;;;4.07;0.70;;;9.60;4.60;;;;;;7360352;19;20038;-66
2023/03/10 04:38:59;;;;;;;0.77;0.50;;;9.60;5.10;;;;;;7386752;19;20010;-67
2023/03/10 04:41:29;;;;;;;1.40;0.60;;;9.50;6.00;;;;;;7364227;19;20030;-67
2023/03/10 04:44:01;;;;;;;1.92;0.60;;;9.50;6.20;;;;;;7362081;19;20532;-67
2023/03/10 04:46:32;;;;;;;1.08;0.55;;;9.50;6.30;;;;;;7362962;19;20007;-65
2023/03/10 04:49:02;;;;;;;1.13;0.40;;;9.50;6.10;;;;;;7375204;19;20498;-67
2023/03/10 04:51:33;;;;;;;0.80;0.38;;;9.60;5.80;;;;;;7372956;19;20496;-67
2023/03/10 04:54:03;;;;;;;1.98;0.40;;;9.70;5.20;;;;;;7390566;19;20412;-66
2023/03/10 04:56:33;;;;;;;1.58;0.60;;;9.70;5.00;;;;;;7361626;19;20018;-67
2023/03/10 04:59:05;;;;;;;1.70;0.60;;;9.70;5.20;;;;;;7363801;19;20487;-67
2023/03/10 05:01:35;;;;;;;0.73;0.40;;;9.70;4.80;;;;;;7363028;19;20011;-66
2023/03/10 05:04:06;;;;;;;1.42;0.50;;;9.80;4.70;;;;;;7362390;19;20017;-66
2023/03/10 05:06:36;;;;;;;0.90;0.43;;;9.70;7.00;;;;;;7360663;19;20498;-66
2023/03/10 05:09:06;;;;;;;2.45;0.63;;;9.60;9.20;;;;;;7383914;19;20015;-67
2023/03/10 05:11:36;;;;;;;1.27;0.60;;;9.40;12.00;;;;;;7362871;19;20018;-66
2023/03/10 05:14:08;;;;;;;2.92;0.77;;;9.30;14.70;;;;;;7360538;19;20020;-68
2023/03/10 05:16:38;;;;;;;1.20;0.52;;;9.20;16.00;;;;;;7360766;19;20025;-66
2023/03/10 05:19:08;;;;;;;2.28;0.63;;;9.20;17.40;;;;;;7360260;19;20018;-65
2023/03/10 05:21:38;;;;;;;3.28;0.57;;;9.00;18.90;;;;;;7362649;19;20038;-66
2023/03/10 05:24:08;;;;;;;0.88;0.50;;;9.00;19.50;;;;;;7382384;19;20014;-67
2023/03/10 05:26:38;;;;;;;1.58;0.70;;;8.80;20.50;;;;;;7360286;19;20029;-67
2023/03/10 05:29:11;;;;;;;1.45;0.57;;;8.80;22.60;;;;;;7360498;19;20014;-67
2023/03/10 05:31:40;;;;;;;2.35;0.82;;;8.70;22.50;;;;;;7360155;19;20010;-67
2023/03/10 05:34:10;;;;;;;1.85;0.90;;;8.70;23.00;;;;;;7359545;19;20014;-67
2023/03/10 05:36:40;;;;;;;4.18;0.95;;;8.70;23.00;;;;;;7358528;19;20550;-68
2023/03/10 05:39:10;;;;;;;1.65;0.93;;;8.70;22.40;;;;;;7382364;19;20022;-67
2023/03/10 05:41:40;;;;;;;2.72;1.00;;;8.70;21.90;;;;;;7362329;19;20011;-64
2023/03/10 05:44:13;;;;;;;1.77;0.68;;;8.70;22.40;;;;;;7360320;19;20369;-67
2023/03/10 05:46:43;;;;;;;2.17;0.80;;;8.80;22.00;;;;;;7363831;19;20478;-66
2023/03/10 05:49:13;;;;;;;2.00;0.98;;;8.80;21.40;;;;;;7366444;19;20011;-65
2023/03/10 05:51:42;;;;;;;2.78;0.73;;;8.80;21.40;;;;;;7370514;19;20030;-67
2023/03/10 05:54:12;;;;;;;1.98;0.77;;;8.80;20.60;;;;;;7388215;19;20014;-67
2023/03/10 05:56:42;;;;;;;1.85;0.70;;;8.80;20.80;;;;;;7365890;19;20011;-66
2023/03/10 05:59:14;;;;;;;2.25;0.82;;;8.80;20.10;;;;;;7366288;19;20382;-66
2023/03/10 06:01:44;;;;;;;2.08;0.73;;;8.90;19.50;;;;;;7367571;19;20049;-66
2023/03/10 06:04:14;;;;;;;2.38;1.55;;;9.00;19.60;;;;;;7366270;19;20010;-66
2023/03/10 06:06:44;;;;;;;2.85;1.10;;;9.00;18.70;;;;;;7366478;19;20010;-66
2023/03/10 06:09:14;;;;;;;3.05;0.90;;;9.10;17.40;;;;;;7387922;19;20018;-66
2023/03/10 06:11:43;;;;;;;3.33;1.02;;;9.20;16.60;;;;;;7369800;19;20017;-66
2023/03/10 06:14:16;;;;;;;2.65;0.80;;;9.30;15.30;;;;;;7364985;19;20017;-66
2023/03/10 06:16:50;;;;;;;1.98;0.80;;;9.40;13.70;;;;;;7366859;19;20018;-67
2023/03/10 06:19:20;;;;;;;2.92;1.00;;;9.50;12.20;;;;;;7364737;19;20145;-67
2023/03/10 06:21:50;;;;;;;3.90;0.93;;;9.60;11.40;;;;;;7368527;19;20106;-66
2023/03/10 06:24:20;;;;;;;0.88;0.63;;;9.70;9.20;;;;;;7387339;19;20018;-66
2023/03/10 06:26:50;;;;;;;2.03;0.60;;;9.80;8.40;;;;;;7365945;19;20010;-66
2023/03/10 06:29:22;;;;;;;1.88;0.65;;;9.90;8.40;;;;;;7365410;19;20055;-67
2023/03/10 06:31:52;;;;;;;6.53;0.88;;;9.90;8.00;;;;;;7366023;19;20010;-67
2023/03/10 06:34:22;;;;;;;2.78;0.90;;;9.80;8.40;;;;;;7364984;19;20010;-67
2023/03/10 06:36:52;;;;;;;1.63;0.85;;;9.80;8.90;;;;;;7363298;19;20011;-67
2023/03/10 06:39:22;;;;;;;2.05;1.05;;;9.80;9.40;;;;;;7385577;19;20006;-65
2023/03/10 06:41:54;;;;;;;4.78;0.95;;;9.80;9.80;;;;;;7369678;19;20006;-67
2023/03/10 06:44:26;;;;;;;2.13;0.98;;;9.80;8.40;;;;;;7363646;19;20014;-67
2023/03/10 06:46:56;;;;;;;2.17;1.10;;;9.80;8.60;;;;;;7365184;19;20030;-67
2023/03/10 06:49:30;;;;;;;3.53;1.40;;;9.70;8.50;;;;;;7361774;19;20363;-67
2023/03/10 06:52:00;;;;;;;2.55;0.90;;;9.70;8.90;;;;;;7368480;19;20133;-65
2023/03/10 06:54:30;;;;;;;1.70;0.68;;;9.60;8.70;;;;;;7365093;19;20017;-66
2023/03/10 06:57:00;;;;;;;1.75;0.73;;;9.60;8.60;;;;;;7386265;19;20383;-66
2023/03/10 06:59:33;;;;;;;2.45;0.68;;;9.60;8.70;;;;;;7361715;19;20018;-67
2023/03/10 07:02:02;;;;;;;1.30;0.50;;;9.70;8.40;;;;;;7366871;19;20015;-66
2023/03/10 07:04:32;;;;;;;2.00;0.57;;;9.70;8.30;;;;;;7365394;19;20015;-65
2023/03/10 07:07:02;;;;;;;1.33;0.35;;;9.70;8.40;;;;;;7364207;19;20017;-66
2023/03/10 07:09:32;;;;;;;2.50;0.82;;;9.70;7.00;;;;;;7363571;19;20418;-67
2023/03/10 07:12:02;;;;;;;0.88;0.55;;;9.80;6.10;;;;;;7390638;19;20018;-67
2023/03/10 07:14:34;;;;;;;1.38;0.88;;;9.80;4.70;;;;;;7363090;19;20015;-67
2023/03/10 07:17:04;;;;;;;1.88;0.75;;;9.80;4.80;;;;;;7363030;19;20120;-67
2023/03/10 07:19:34;;;;;;;2.10;1.00;;;9.80;4.70;;;;;;7361053;19;20014;-67
2023/03/10 07:22:04;;;;;;;2.75;0.60;;;9.80;4.00;;;;;;7366630;19;20014;-67
2023/03/10 07:24:34;;;;;;;0.88;0.55;;;9.80;3.50;;;;;;7363231;19;20095;-66
2023/03/10 07:27:04;;;;;;;1.75;0.77;;;9.70;3.10;;;;;;7384657;19;20096;-65
2023/03/10 07:29:39;;;;;;;1.73;0.55;;;9.70;3.30;;;;;;7362202;19;20010;-66
2023/03/10 07:32:09;;;;;;;0.73;0.40;;;9.70;2.80;;;;;;7363805;19;20010;-67
2023/03/10 07:34:39;;;;;;;1.05;0.40;;;9.70;2.60;;;;;;7362888;19;20014;-67
2023/03/10 07:37:09;;;;;;;2.05;0.40;;;9.70;2.70;;;;;;7365330;19;20018;-66
2023/03/10 07:39:39;;;;;;;0.75;0.30;;;9.70;3.50;;;;;;7362258;19;20011;-66
2023/03/10 07:42:09;;;;;;;1.98;0.40;;;9.80;3.60;;;;;;7388539;19;20021;-67
2023/03/10 07:44:41;;;;;;;0.80;0.43;;;9.80;3.20;;;;;;7363453;19;20015;-67
2023/03/10 07:47:11;;;;;;;0.40;0.22;;;9.90;3.30;;;;;;7362024;19;20011;-67
2023/03/10 07:49:45;;;;;;;2.08;0.55;;;9.90;3.70;;;;;;7359175;19;20011;-66
2023/03/10 07:52:15;;;;;;;2.25;0.68;;;10.00;2.60;;;;;;7365610;19;21090;-67
2023/03/10 07:54:45;;;;;;;1.52;0.90;;;10.10;2.40;;;;;;7362820;19;20014;-67
2023/03/10 07:57:16;;;;;;;3.42;1.70;;;10.20;2.70;;;;;;7384278;19;20498;-67
2023/03/10 07:59:49;;;;;;;1.50;1.00;;;10.20;3.30;;;;;;7361384;19;20431;-66
2023/03/10 08:02:19;;;;;;;1.85;0.98;;;10.30;2.60;;;;;;7362552;19;20011;-67
2023/03/10 08:04:49;;;;;;;3.42;1.10;;;10.20;2.20;;;;;;7361983;19;20017;-67
2023/03/10 08:07:18;;;;;;;3.95;1.15;;;10.20;2.80;;;;;;7362175;19;20011;-66
2023/03/10 08:09:51;;;;;;;2.53;1.17;;;10.10;5.20;;;;;;7361434;19;21569;-68
2023/03/10 08:12:22;;;;;;;1.65;0.70;;;9.90;7.60;;;;;;7383712;19;20115;-67
2023/03/10 08:14:55;;;;;;;5.25;3.05;;;9.80;8.90;;;;;;7363221;19;20026;-66
2023/03/10 08:17:29;;;;;;;2.17;0.90;;;9.80;9.80;;;;;;7360268;19;20030;-66
2023/03/10 08:19:59;;;;;;;1.73;0.60;;;9.80;10.30;;;;;;7358856;19;20514;-66
2023/03/10 08:22:30;;;;;;;2.40;0.85;;;9.80;8.90;;;;;;7361775;19;20381;-66
2023/03/10 08:25:00;;;;;;;1.88;0.80;;;9.80;8.10;;;;;;7362218;19;20022;-67
2023/03/10 08:27:30;;;;;;;1.30;0.60;;;9.80;7.50;;;;;;7361761;19;20018;-67
2023/03/10 08:30:02;;;;;;;2.97;0.70;;;9.70;8.00;;;;;;7381190;19;20012;-67
2023/03/10 08:32:32;;;;;;;2.38;0.40;;;9.70;5.70;;;;;;7362681;19;20043;-66
2023/03/10 08:35:03;;;;;;;2.53;0.65;;;9.70;3.00;;;;;;7361926;19;20581;-66
2023/03/10 08:37:33;;;;;;;1.02;0.45;;;9.80;4.70;;;;;;7361255;19;20015;-65
2023/03/10 08:40:06;;;;;;;2.60;0.80;;;9.70;1.00;;;;;;7358905;19;20385;-66
2023/03/10 08:42:37;;;;;;;1.42;0.38;;;9.70;1.00;;;;;;7361372;19;20015;-66
2023/03/10 08:45:10;;;;;;;4.05;0.43;;;9.70;1.00;;;;;;7382615;19;20014;-66
2023/03/10 08:47:40;;;;;;;1.77;0.60;;;9.90;1.00;;;;;;7360205;19;20049;-66
2023/03/10 08:50:13;;;;;;;3.88;0.70;;;10.10;1.00;;;;;;7356456;19;20013;-67
2023/03/10 08:52:42;;;;;;;3.97;0.80;;;10.10;1.00;;;;;;7361173;19;20014;-66
2023/03/10 08:55:13;;;;;;;2.65;0.80;;;10.00;1.00;;;;;;7361100;19;20011;-66
2023/03/10 08:57:43;;;;;;;3.50;0.88;;;9.90;1.00;;;;;;7363397;19;20128;-68
2023/03/10 09:00:16;;;;;;;4.18;1.20;;;10.00;1.00;;;;;;7379996;19;20014;-67
2023/03/10 09:02:46;;;;;;;3.88;0.73;;;10.10;1.00;;;;;;7360971;19;20014;-66
2023/03/10 09:05:16;;;;;;;2.03;0.68;;;10.50;1.00;;;;;;7359833;19;20037;-66
2023/03/10 09:07:47;;;;;;;3.28;0.68;;;11.00;1.00;;;;;;7360429;19;20393;-66
2023/03/10 09:10:18;;;;;;;1.23;0.40;;;11.30;1.00;;;;;;7359175;19;20018;-67
2023/03/10 09:12:47;;;;;;;1.42;0.45;;;11.30;1.00;;;;;;7361096;19;20464;-68
2023/03/10 09:15:20;;;;;;;1.13;0.52;;;11.30;1.00;;;;;;7382789;19;20018;-68
2023/03/10 09:17:49;;;;;;;1.73;0.50;;;11.40;1.00;;;;;;7359734;19;20351;-67
2023/03/10 09:20:24;;;;;;;2.35;0.52;;;11.50;1.00;;;;;;7355940;19;20161;-67
2023/03/10 09:22:58;;;;;;;1.08;0.45;;;11.70;1.00;;;;;;7360753;19;20366;-67
2023/03/10 09:25:28;;;;;;;3.55;0.52;;;11.80;1.00;;;;;;7360498;19;20017;-67
2023/03/10 09:27:58;;;;;;;2.13;0.60;;;11.80;1.00;;;;;;7360480;19;20015;-66
2023/03/10 09:30:30;;;;;;;1.05;0.40;;;11.90;1.00;;;;;;7367909;19;20018;-67
2023/03/10 09:33:00;;;;;;;1.00;0.63;;;11.60;1.00;;;;;;7381608;19;20022;-67
2023/03/10 09:35:30;;;;;;;2.00;0.98;;;11.50;1.00;;;;;;7361550;19;20007;-67
2023/03/10 09:38:00;;;;;;;2.08;0.38;;;11.50;1.00;;;;;;7359386;19;20015;-67
2023/03/10 09:40:30;;;;;;;2.60;0.50;;;11.40;1.00;;;;;;7357593;19;20114;-67
2023/03/10 09:43:03;;;;;;;1.25;0.43;;;11.30;1.00;;;;;;7360629;19;20057;-66
2023/03/10 09:45:44;;;;;;;1.13;0.50;;;11.30;1.00;;;;;;7359941;19;20010;-67
2023/03/10 09:48:31;;;;;;;2.00;0.60;;;11.10;1.00;;;;;;7380036;19;20018;-67
2023/03/10 09:51:05;;;;;;;3.55;0.52;;;10.90;1.00;;;;;;7360009;19;20485;-66
2023/03/10 09:53:53;;;;;;;4.90;1.08;;;10.90;1.00;;;;;;7359114;19;20053;-66
2023/03/10 09:56:26;;;;;;;2.33;0.65;;;10.70;1.00;;;;;;7359349;19;20015;-67
2023/03/10 09:59:04;;;;;;;2.63;0.50;;;10.60;1.00;;;;;;7357320;19;20587;-67
2023/03/10 10:01:37;;;;;;;2.08;0.70;;;10.70;4.60;;;;;;7359202;19;20074;-67
2023/03/10 10:04:12;;;;;;;1.75;0.43;;;10.70;4.20;;;;;;7358740;19;20011;-68
2023/03/10 10:06:46;;;;;;;2.65;0.85;;;10.70;5.10;;;;;;7359301;19;20021;-68
2023/03/10 10:09:26;;;;;;;6.50;2.70;;;10.90;5.60;;;;;;7378630;19;20023;-67
2023/03/10 10:11:57;;;;;;;1.65;0.88;;;11.00;3.20;;;;;;7358796;19;20138;-68
2023/03/10 10:14:29;;;;;;;1.77;0.77;;;10.90;1.00;;;;;;7359638;19;20060;-67
2023/03/10 10:17:11;;;;;;;3.13;0.60;;;10.90;1.00;;;;;;7359410;19;20010;-67
2023/03/10 10:19:42;;;;;;;3.33;0.60;;;10.80;1.00;;;;;;7342469;19;20532;-68
2023/03/10 10:22:21;;;;;;;1.85;0.50;;;10.70;1.00;;;;;;7362206;19;20023;-68
2023/03/10 10:25:04;;;;;;;3.42;0.60;;;10.70;1.30;;;;;;7361683;19;20014;-68
2023/03/10 10:27:37;;;;;;;4.78;1.20;;;10.50;1.00;;;;;;7361658;19;20018;-68
2023/03/10 10:30:30;;;;;;;3.40;0.85;;;10.60;3.70;;;;;;7379364;19;20029;-67
2023/03/10 10:33:04;;;;;;;2.75;0.90;;;10.50;3.50;;;;;;7364298;19;20018;-67
2023/03/10 10:35:37;;;;;;;2.33;0.63;;;10.40;4.00;;;;;;7369720;19;20007;-69
2023/03/10 10:38:19;;;;;;;1.90;0.77;;;10.40;5.40;;;;;;7368777;19;20040;-68
2023/03/10 10:40:50;;;;;;;2.35;0.68;;;10.50;7.00;;;;;;7366382;19;20017;-68
2023/03/10 10:45:55;;;;;;;2.58;1.20;;;10.20;6.80;;;;;;7369500;19;20012;-68
2023/03/10 10:48:44;;;;;;;2.00;0.75;;;10.00;7.90;;;;;;7391029;19;20522;-67
2023/03/10 10:51:23;;;;;;;6.43;0.93;;;9.70;10.10;;;;;;7368701;19;20012;-68
2023/03/10 10:53:53;;;;;;;2.00;0.80;;;9.70;15.20;;;;;;7367590;19;20034;-68
2023/03/10 10:56:24;;;;;;;1.83;0.80;;;9.60;16.40;;;;;;7368456;19;20015;-68
2023/03/10 10:59:09;;;;;;;3.17;0.82;;;9.70;17.30;;;;;;7365849;19;20331;-68
2023/03/10 11:01:50;;;;;;;3.70;0.98;;;9.70;17.40;;;;;;7368364;19;20310;-68
2023/03/10 11:04:24;;;;;;;3.25;0.80;;;9.90;19.60;;;;;;7367877;19;20529;-68
2023/03/10 11:07:09;;;;;;;2.08;0.75;;;10.10;19.90;;;;;;7369204;19;20006;-67
2023/03/10 11:09:38;;;;;;;2.85;1.10;;;10.10;17.60;;;;;;7363812;19;20085;-68
2023/03/10 11:12:18;;;;;;;4.93;1.17;;;10.40;18.90;;;;;;7390975;19;20696;-67
2023/03/10 11:15:00;;;;;;;4.72;0.80;;;10.40;15.70;;;;;;7367663;19;20010;-67
2023/03/10 11:17:37;;;;;;;0.93;0.63;;;10.50;13.10;;;;;;7367139;19;20021;-67
2023/03/10 11:20:25;;;;;;;2.67;0.60;;;10.70;10.90;;;;;;7363434;19;20096;-67
2023/03/10 11:23:02;;;;;;;3.92;2.35;;;10.80;10.40;;;;;;7369152;19;20007;-66
2023/03/10 11:25:38;;;;;;;2.97;0.60;;;10.80;6.20;;;;;;7366840;19;20011;-67
2023/03/10 11:28:37;;;;;;;1.50;0.70;;;10.90;6.20;;;;;;7367483;19;20478;-67
2023/03/10 11:31:19;;;;;;;1.83;0.50;;;10.90;4.70;;;;;;7367349;19;20018;-67
2023/03/10 11:33:53;;;;;;;4.22;0.70;;;11.10;6.80;;;;;;7367852;19;20114;-68
2023/03/10 11:36:36;;;;;;;2.47;0.60;;;11.20;4.90;;;;;;7391288;19;20015;-68
2023/03/10 11:39:33;;;;;;;2.38;0.60;;;11.20;3.40;;;;;;7261645;19;2004333;-67
2023/03/10 11:42:10;;;;;;;2.35;0.63;;;11.20;1.00;;;;;;7391758;19;20082;-68
2023/03/10 11:44:45;;;;;;;1.08;0.57;;;11.10;1.50;;;;;;7366611;19;20406;-68
2023/03/10 11:47:23;;;;;;;2.25;0.68;;;11.10;1.00;;;;;;7367895;19;20082;-67
2023/03/10 11:49:59;;;;;;;1.45;0.55;;;11.00;1.40;;;;;;7363999;19;20388;-68
2023/03/10 11:52:34;;;;;;;1.92;0.50;;;10.90;2.20;;;;;;7369006;19;20399;-67
2023/03/10 11:55:08;;;;;;;2.83;0.63;;;10.90;4.30;;;;;;7367013;19;20014;-68
2023/03/10 11:57:45;;;;;;;2.05;0.50;;;11.10;3.70;;;;;;7368101;19;20082;-68
2023/03/10 12:00:22;;;;;;;3.25;0.60;;;11.10;1.50;;;;;;7385487;19;20052;-68
2023/03/10 12:03:07;;;;;;;2.83;0.80;;;11.20;2.50;;;;;;7366581;19;20046;-66
2023/03/10 12:05:45;;;;;;;1.45;0.68;;;11.10;1.00;;;;;;7366631;19;20531;-66
2023/03/10 12:08:19;;;;;;;1.08;0.60;;;11.20;3.00;;;;;;7365809;19;20059;-67
2023/03/10 12:10:51;;;;;;;1.58;0.40;;;11.00;1.00;;;;;;7365029;19;20003;-67
2023/03/10 12:13:26;;;;;;;2.90;0.65;;;11.30;1.00;;;;;;7366943;19;20018;-67
2023/03/10 12:15:59;;;;;;;1.42;0.40;;;11.40;1.00;;;;;;7365376;19;20082;-67
2023/03/10 12:18:30;;;;;;;1.38;0.60;;;11.40;1.00;;;;;;7365398;19;20447;-67
2023/03/10 12:21:16;;;;;;;3.55;0.70;;;11.50;1.00;;;;;;7385493;19;20023;-68
2023/03/10 12:23:50;;;;;;;2.22;0.40;;;11.60;1.00;;;;;;7364840;19;20069;-67
2023/03/10 12:26:50;;;;;;;0.98;0.47;;;11.40;1.00;;;;;;7366311;19;20014;-67
2023/03/10 12:29:32;;;;;;;1.52;0.60;;;11.40;1.00;;;;;;7363579;19;20089;-67
2023/03/10 12:32:02;;;;;;;0.60;0.40;;;11.50;1.00;;;;;;7365837;19;20026;-67
2023/03/10 12:34:33;;;;;;;1.67;0.40;;;11.50;1.00;;;;;;7367019;19;20010;-65
2023/03/10 12:37:09;;;;;;;0.75;0.40;;;11.60;1.00;;;;;;7367461;19;20031;-67
2023/03/10 12:39:43;;;;;;;0.68;0.50;;;11.40;1.00;;;;;;7361402;19;20094;-66
2023/03/10 12:42:33;;;;;;;0.45;0.25;;;11.40;1.00;;;;;;7388350;19;20010;-68
2023/03/10 12:45:16;;;;;;;0.60;0.40;;;11.20;1.00;;;;;;7366219;19;20016;-67
2023/03/10 12:48:00;;;;;;;3.13;0.32;;;11.10;1.00;;;;;;7364556;19;20022;-67
2023/03/10 12:50:37;;;;;;;0.40;0.20;;;11.00;1.00;;;;;;7362258;19;20017;-67
2023/03/10 12:53:25;;;;;;;4.80;0.30;;;11.00;1.00;;;;;;7366138;19;20046;-67
2023/03/10 12:56:20;;;;;;;0.30;0.20;;;10.90;1.00;;;;;;7363602;19;20384;-67
2023/03/10 12:58:57;;;;;;;1.40;0.17;;;11.00;1.00;;;;;;7363314;19;20114;-66
2023/03/10 13:01:34;;;;;;;0.30;0.20;;;11.00;1.00;;;;;;7361097;19;20762;-67
2023/03/10 13:04:09;;;;;;;0.68;0.25;;;11.10;1.00;;;;;;7365814;19;20006;-67
2023/03/10 13:06:40;;;;;;;0.55;0.20;;;11.10;1.00;;;;;;7366033;19;20454;-68
2023/03/10 13:09:22;;;;;;;0.68;0.30;;;11.10;1.00;;;;;;7384290;19;20342;-67
2023/03/10 13:11:58;;;;;;;4.68;1.58;;;10.90;1.00;;;;;;7363108;19;20015;-65
2023/03/10 13:14:37;;;;;;;1.08;0.40;;;10.90;1.00;;;;;;7365057;19;20478;-66
2023/03/10 13:17:08;;;;;;;0.50;0.30;;;10.90;1.00;;;;;;7364663;19;20020;-66
2023/03/10 13:19:39;;;;;;;0.32;0.10;;;10.80;1.00;;;;;;7360733;19;20013;-66
2023/03/10 13:22:18;;;;;;;2.92;0.40;;;10.80;1.00;;;;;;7366935;19;20007;-68
2023/03/10 13:24:59;;;;;;;0.30;0.20;;;10.70;1.00;;;;;;7362576;19;20767;-67
2023/03/10 13:27:34;;;;;;;0.30;0.20;;;10.60;1.00;;;;;;7363536;19;20027;-67
2023/03/10 13:30:13;;;;;;;0.63;0.30;;;10.40;1.00;;;;;;7381963;19;20035;-66
2023/03/10 13:32:44;;;;;;;1.33;0.20;;;10.40;1.00;;;;;;7366198;19;20373;-67